createdAt,value
2017-04-01T00:02:03.636Z,47.8
2017-04-01T00:07:03.048Z,47.7
2017-04-01T00:12:03.657Z,47.7
2017-04-01T00:17:03.274Z,47.8
2017-04-01T00:22:03.808Z,47.8
2017-04-01T00:27:03.286Z,47.5
2017-04-01T00:32:03.332Z,47.6
2017-04-01T00:37:03.403Z,47.6
2017-04-01T00:42:03.898Z,47.5
2017-04-01T00:47:03.670Z,47.4
2017-04-01T00:52:03.155Z,47.5
2017-04-01T00:57:03.359Z,47.4
2017-04-01T01:02:03.750Z,47.4
2017-04-01T01:07:03.443Z,47.6
2017-04-01T01:12:03.011Z,47.5
2017-04-01T01:17:03.721Z,47.5
2017-04-01T01:22:02.977Z,47.4
2017-04-01T01:27:03.500Z,47.4
2017-04-01T01:32:03.116Z,47.3
2017-04-01T01:37:03.782Z,47.4
2017-04-01T01:42:03.256Z,47.5
2017-04-01T01:47:04.095Z,47.5
2017-04-01T01:52:03.384Z,47.5
2017-04-01T01:57:02.937Z,47.5
2017-04-01T02:02:03.520Z,47.6
2017-04-01T02:07:03.717Z,47.6
2017-04-01T02:12:03.076Z,47.4
2017-04-01T02:17:03.510Z,47.5
2017-04-01T02:22:03.704Z,47.5
2017-04-01T02:27:03.368Z,47.5
2017-04-01T02:32:03.901Z,47.5
2017-04-01T02:37:03.578Z,47.5
2017-04-01T02:42:03.792Z,47.5
2017-04-01T02:47:03.056Z,47.6
2017-04-01T02:52:03.399Z,47.6
2017-04-01T02:57:03.736Z,47.6
2017-04-01T03:02:03.085Z,47.7
2017-04-01T03:07:03.411Z,47.6
2017-04-01T03:12:03.144Z,47.6
2017-04-01T03:17:03.545Z,47.6
2017-04-01T03:22:03.755Z,47.8
2017-04-01T03:27:03.268Z,47.7
2017-04-01T03:32:03.879Z,47.4
2017-04-01T03:37:03.935Z,47.5
2017-04-01T03:42:03.363Z,47.3
2017-04-01T03:47:03.597Z,47.3
2017-04-01T03:52:03.912Z,47.3
2017-04-01T03:57:03.171Z,47.2
2017-04-01T04:02:03.594Z,47.6
2017-04-01T04:07:03.898Z,47.5
2017-04-01T04:12:03.505Z,47.4
2017-04-01T04:17:03.859Z,47.3
2017-04-01T04:22:03.479Z,47.3
2017-04-01T04:27:03.926Z,47.4
2017-04-01T04:32:10.635Z,47.5
2017-04-01T04:37:03.168Z,47.4
2017-04-01T04:42:03.404Z,47.4
2017-04-01T04:47:04.312Z,47.5
2017-04-01T04:52:03.116Z,47.5
2017-04-01T04:57:03.086Z,47.5
2017-04-01T05:02:24.144Z,47.5
2017-04-01T05:07:03.928Z,47.8
2017-04-01T05:12:03.883Z,47.7
2017-04-01T05:17:28.852Z,47.7
2017-04-01T05:22:03.627Z,47.3
2017-04-01T05:27:03.466Z,47.3
2017-04-01T05:32:24.032Z,47.2
2017-04-01T05:37:03.915Z,47.2
2017-04-01T05:42:03.299Z,47.4
2017-04-01T05:47:24.729Z,47.2
2017-04-01T05:52:03.254Z,47.2
2017-04-01T05:57:03.799Z,47.0
2017-04-01T06:02:24.442Z,47.0
2017-04-01T06:07:03.529Z,47.1
2017-04-01T06:12:03.900Z,47.0
2017-04-01T06:17:23.765Z,47.0
2017-04-01T06:22:03.475Z,47.0
2017-04-01T06:27:03.748Z,47.0
2017-04-01T06:32:25.668Z,47.0
2017-04-01T06:37:03.035Z,47.0
2017-04-01T06:42:03.158Z,47.0
2017-04-01T06:47:27.268Z,47.1
2017-04-01T06:52:03.426Z,46.9
2017-04-01T06:57:04.088Z,47.0
2017-04-01T07:02:23.753Z,47.1
2017-04-01T07:07:03.152Z,46.9
2017-04-01T07:12:03.314Z,46.8
2017-04-01T07:17:28.847Z,46.5
2017-04-01T07:22:03.519Z,46.5
2017-04-01T07:27:03.888Z,46.0
2017-04-01T07:32:27.810Z,45.9
2017-04-01T07:37:03.730Z,45.9
2017-04-01T07:42:03.188Z,46.0
2017-04-01T07:47:28.763Z,45.8
2017-04-01T07:52:03.342Z,45.7
2017-04-01T07:57:03.798Z,45.7
2017-04-01T08:02:25.342Z,46.0
2017-04-01T08:07:03.006Z,45.9
2017-04-01T08:12:03.124Z,45.9
2017-04-01T08:17:24.835Z,46.1
2017-04-01T08:22:03.213Z,46.5
2017-04-01T08:27:03.191Z,46.5
2017-04-01T08:32:28.249Z,46.6
2017-04-01T08:37:03.303Z,46.7
2017-04-01T08:42:03.451Z,47.0
2017-04-01T08:47:27.124Z,47.1
2017-04-01T08:52:03.885Z,47.2
2017-04-01T08:57:03.342Z,47.3
2017-04-01T09:02:28.179Z,47.3
2017-04-01T09:07:03.739Z,47.3
2017-04-01T09:12:03.829Z,47.4
2017-04-01T09:17:24.157Z,47.4
2017-04-01T09:22:03.341Z,47.3
2017-04-01T09:27:03.194Z,47.3
2017-04-01T09:32:24.062Z,47.2
2017-04-01T09:37:03.132Z,47.3
2017-04-01T09:42:03.068Z,47.1
2017-04-01T09:47:28.263Z,47.0
2017-04-01T09:52:03.434Z,47.0
2017-04-01T09:57:03.055Z,47.2
2017-04-01T10:02:23.813Z,47.0
2017-04-01T10:07:03.222Z,46.8
2017-04-01T10:12:03.421Z,47.2
2017-04-01T10:17:29.131Z,47.4
2017-04-01T10:22:03.896Z,47.4
2017-04-01T10:27:03.240Z,47.7
2017-04-01T10:32:27.384Z,47.7
2017-04-01T10:37:03.202Z,47.8
2017-04-01T10:42:03.666Z,48.0
2017-04-01T10:47:26.077Z,48.2
2017-04-01T10:52:03.555Z,48.2
2017-04-01T10:57:03.642Z,48.2
2017-04-01T11:02:23.974Z,48.2
2017-04-01T11:07:03.491Z,48.1
2017-04-01T11:12:03.142Z,48.0
2017-04-01T11:17:24.872Z,48.6
2017-04-01T11:22:03.922Z,48.6
2017-04-01T11:27:03.973Z,48.4
2017-04-01T11:32:28.877Z,48.4
2017-04-01T11:37:03.431Z,48.2
2017-04-01T11:42:03.340Z,47.8
2017-04-01T11:47:23.477Z,48.1
2017-04-01T11:52:03.298Z,48.0
2017-04-01T11:57:03.832Z,47.9
2017-04-01T12:02:22.652Z,47.9
2017-04-01T12:07:03.501Z,47.8
2017-04-01T12:12:03.074Z,48.1
2017-04-01T12:17:05.449Z,47.6
2017-04-01T12:22:03.275Z,47.1
2017-04-01T12:27:03.364Z,47.4
2017-04-01T12:32:20.612Z,47.4
2017-04-01T12:37:03.695Z,47.4
2017-04-01T12:42:02.913Z,47.4
2017-04-01T12:47:16.807Z,47.3
2017-04-01T12:52:04.433Z,47.4
2017-04-01T12:57:04.094Z,47.5
2017-04-01T13:02:25.214Z,46.7
2017-04-01T13:07:03.463Z,47.5
2017-04-01T13:12:03.236Z,47.7
2017-04-01T13:17:21.973Z,48.3
2017-04-01T13:22:03.609Z,48.3
2017-04-01T13:27:03.185Z,48.3
2017-04-01T13:32:23.534Z,46.9
2017-04-01T13:37:03.970Z,46.9
2017-04-01T13:42:03.918Z,47.5
2017-04-01T13:47:24.552Z,47.9
2017-04-01T13:52:03.199Z,47.8
2017-04-01T13:57:03.570Z,47.8
2017-04-01T14:02:23.895Z,47.7
2017-04-01T14:07:03.449Z,47.5
2017-04-01T14:12:03.297Z,47.4
2017-04-01T14:17:32.184Z,47.4
2017-04-01T14:22:03.466Z,47.4
2017-04-01T14:27:03.718Z,47.4
2017-04-01T14:32:22.047Z,47.3
2017-04-01T14:37:03.510Z,47.2
2017-04-01T14:42:03.749Z,46.9
2017-04-01T14:47:28.371Z,47.3
2017-04-01T14:52:03.788Z,47.3
2017-04-01T14:57:03.332Z,47.8
2017-04-01T15:07:03.276Z,48.5
2017-04-01T15:12:03.510Z,48.3
2017-04-01T15:17:26.673Z,48.2
2017-04-01T15:22:03.293Z,48.2
2017-04-01T15:27:03.185Z,48.2
2017-04-01T15:32:21.730Z,48.1
2017-04-01T15:37:03.529Z,48.1
2017-04-01T15:42:03.449Z,38.7
2017-04-01T15:47:21.777Z,35.6
2017-04-01T15:52:03.297Z,34.5
2017-04-01T15:57:03.448Z,34.5
2017-04-01T16:02:25.047Z,34.1
2017-04-01T16:07:03.250Z,34.1
2017-04-01T16:12:03.720Z,34.4
2017-04-01T16:17:21.053Z,35.0
2017-04-01T16:22:03.586Z,34.9
2017-04-01T16:27:03.746Z,35.6
2017-04-01T16:32:21.732Z,35.1
2017-04-01T16:37:03.814Z,35.1
2017-04-01T16:42:03.826Z,35.0
2017-04-01T16:47:22.041Z,36.8
2017-04-01T16:52:03.197Z,36.7
2017-04-01T16:57:03.105Z,38.1
2017-04-01T17:02:28.030Z,41.1
2017-04-01T17:07:03.175Z,41.0
2017-04-01T17:12:03.956Z,43.8
2017-04-01T17:17:23.622Z,45.5
2017-04-01T17:22:03.544Z,45.4
2017-04-01T17:27:03.442Z,45.8
2017-04-01T17:32:21.228Z,46.0
2017-04-01T17:37:03.142Z,46.0
2017-04-01T17:42:03.864Z,46.4
2017-04-01T17:47:33.210Z,46.4
2017-04-01T17:52:03.189Z,46.5
2017-04-01T17:57:03.660Z,46.5
2017-04-01T18:02:13.871Z,46.5
2017-04-01T18:07:03.839Z,46.7
2017-04-01T18:12:03.451Z,46.6
2017-04-01T18:17:22.501Z,46.5
2017-04-01T18:22:03.119Z,46.5
2017-04-01T18:27:03.989Z,46.6
2017-04-01T18:32:10.907Z,46.4
2017-04-01T18:37:03.234Z,46.4
2017-04-01T18:42:03.527Z,46.5
2017-04-01T18:47:03.795Z,46.5
2017-04-01T18:52:03.146Z,46.4
2017-04-01T18:57:03.747Z,46.5
2017-04-01T19:02:03.031Z,46.5
2017-04-01T19:07:03.042Z,46.5
2017-04-01T19:12:03.236Z,46.5
2017-04-01T19:17:03.368Z,46.4
2017-04-01T19:22:03.928Z,46.5
2017-04-01T19:27:03.618Z,46.6
2017-04-01T19:32:03.534Z,46.6
2017-04-01T19:37:03.794Z,46.6
2017-04-01T19:42:03.545Z,46.6
2017-04-01T19:47:03.894Z,46.7
2017-04-01T19:52:03.561Z,46.7
2017-04-01T19:57:03.384Z,46.7
2017-04-01T20:02:03.091Z,46.5
2017-04-01T20:07:03.477Z,46.4
2017-04-01T20:12:03.678Z,46.3
2017-04-01T20:17:03.768Z,46.3
2017-04-01T20:22:03.636Z,46.2
2017-04-01T20:27:03.222Z,46.3
2017-04-01T20:32:06.155Z,46.2
2017-04-01T20:37:03.313Z,46.2
2017-04-01T20:42:03.577Z,46.2
2017-04-01T20:47:04.844Z,46.1
2017-04-01T20:52:03.555Z,46.1
2017-04-01T20:57:03.978Z,46.1
2017-04-01T21:02:03.991Z,46.0
2017-04-01T21:07:03.899Z,46.0
2017-04-01T21:12:03.444Z,46.1
2017-04-01T21:17:04.226Z,46.1
2017-04-01T21:22:03.798Z,46.0
2017-04-01T21:27:03.278Z,46.0
2017-04-01T21:32:04.873Z,46.1
2017-04-01T21:37:03.530Z,46.0
2017-04-01T21:42:03.600Z,46.1
2017-04-01T21:47:03.293Z,46.3
2017-04-01T21:52:03.343Z,46.2
2017-04-01T21:57:03.865Z,46.2
2017-04-01T22:02:03.481Z,46.3
2017-04-01T22:07:03.514Z,46.5
2017-04-01T22:12:03.118Z,46.5
2017-04-01T22:22:04.019Z,46.2
2017-04-01T22:27:03.353Z,46.6
2017-04-01T22:32:03.762Z,46.6
2017-04-01T22:37:03.318Z,46.7
2017-04-01T22:42:03.846Z,46.7
2017-04-01T22:47:03.669Z,46.7
2017-04-01T22:52:03.076Z,46.8
2017-04-01T22:57:03.619Z,46.8
2017-04-01T23:02:03.541Z,46.9
2017-04-01T23:07:03.137Z,46.9
2017-04-01T23:12:03.763Z,47.0
2017-04-01T23:17:03.406Z,46.9
2017-04-01T23:22:03.612Z,46.9
2017-04-01T23:27:03.044Z,46.9
2017-04-01T23:32:03.547Z,47.0
2017-04-01T23:37:02.985Z,46.9
2017-04-01T23:42:03.532Z,46.9
2017-04-01T23:47:04.058Z,46.8
2017-04-01T23:52:03.228Z,46.8
2017-04-01T23:57:03.828Z,47.0
